Webcam Flughafen St.Gallen-Altenrhein

Live-Bilder und Zeitraffer LSZR / ACH.

 

Live aus Altenrhein
LIVE
LSZR 241420Z 29011KT 9999 FEW045 02/M06 Q1003 NOSIG RMK F
Zeitraffer heute
2021-01-24 00:14:42
LSZR 232250Z AUTO VRB06KT 9999 FEW050 BKN060 BKN085 05/M01 Q0994